sensor_id;sensor_type;location;lat;lon;timestamp;P1;durP1;ratioP1;P2;durP2;ratioP2
17173;SDS011;8702;48.130;-1.696;2023-11-19T00:01:33;8.83;;;2.80;;
17173;SDS011;8702;48.130;-1.696;2023-11-19T00:04:01;10.83;;;2.80;;
17173;SDS011;8702;48.130;-1.696;2023-11-19T00:06:29;6.67;;;2.23;;
17173;SDS011;8702;48.130;-1.696;2023-11-19T00:08:58;8.97;;;2.80;;
17173;SDS011;8702;48.130;-1.696;2023-11-19T00:11:26;11.33;;;3.13;;
17173;SDS011;8702;48.130;-1.696;2023-11-19T00:13:53;13.30;;;3.20;;
17173;SDS011;8702;48.130;-1.696;2023-11-19T00:16:20;7.63;;;2.70;;
17173;SDS011;8702;48.130;-1.696;2023-11-19T00:18:47;10.50;;;3.03;;
17173;SDS011;8702;48.130;-1.696;2023-11-19T00:21:15;12.47;;;3.50;;
17173;SDS011;8702;48.130;-1.696;2023-11-19T00:23:42;11.90;;;3.53;;
17173;SDS011;8702;48.130;-1.696;2023-11-19T00:26:10;13.40;;;3.50;;
17173;SDS011;8702;48.130;-1.696;2023-11-19T00:28:40;8.77;;;3.33;;
17173;SDS011;8702;48.130;-1.696;2023-11-19T00:31:08;10.07;;;3.30;;
17173;SDS011;8702;48.130;-1.696;2023-11-19T00:33:35;10.40;;;3.20;;
17173;SDS011;8702;48.130;-1.696;2023-11-19T00:36:03;15.43;;;3.40;;
17173;SDS011;8702;48.130;-1.696;2023-11-19T00:38:30;11.93;;;3.53;;
17173;SDS011;8702;48.130;-1.696;2023-11-19T00:40:57;15.67;;;3.63;;
17173;SDS011;8702;48.130;-1.696;2023-11-19T00:43:26;12.63;;;3.70;;
17173;SDS011;8702;48.130;-1.696;2023-11-19T00:45:53;11.87;;;3.50;;
17173;SDS011;8702;48.130;-1.696;2023-11-19T00:48:20;16.27;;;3.60;;
17173;SDS011;8702;48.130;-1.696;2023-11-19T00:50:47;12.30;;;4.07;;
17173;SDS011;8702;48.130;-1.696;2023-11-19T00:53:14;16.40;;;3.47;;
17173;SDS011;8702;48.130;-1.696;2023-11-19T00:55:41;16.03;;;3.67;;
17173;SDS011;8702;48.130;-1.696;2023-11-19T00:58:08;21.20;;;4.30;;
17173;SDS011;8702;48.130;-1.696;2023-11-19T01:00:37;19.70;;;4.33;;
17173;SDS011;8702;48.130;-1.696;2023-11-19T01:03:04;20.43;;;5.30;;
17173;SDS011;8702;48.130;-1.696;2023-11-19T01:05:32;18.30;;;4.37;;
17173;SDS011;8702;48.130;-1.696;2023-11-19T01:07:59;13.53;;;4.10;;
17173;SDS011;8702;48.130;-1.696;2023-11-19T01:10:29;20.93;;;4.53;;
17173;SDS011;8702;48.130;-1.696;2023-11-19T01:12:57;15.60;;;3.93;;
17173;SDS011;8702;48.130;-1.696;2023-11-19T01:15:24;15.30;;;4.50;;
17173;SDS011;8702;48.130;-1.696;2023-11-19T01:17:53;21.23;;;4.83;;
17173;SDS011;8702;48.130;-1.696;2023-11-19T01:20:20;13.90;;;4.27;;
17173;SDS011;8702;48.130;-1.696;2023-11-19T01:22:47;18.30;;;4.33;;
17173;SDS011;8702;48.130;-1.696;2023-11-19T01:25:14;17.70;;;4.33;;
17173;SDS011;8702;48.130;-1.696;2023-11-19T01:27:41;17.60;;;4.07;;
17173;SDS011;8702;48.130;-1.696;2023-11-19T01:30:09;17.40;;;4.50;;
17173;SDS011;8702;48.130;-1.696;2023-11-19T01:32:38;18.10;;;4.53;;
17173;SDS011;8702;48.130;-1.696;2023-11-19T01:35:07;18.57;;;4.57;;
17173;SDS011;8702;48.130;-1.696;2023-11-19T01:37:34;17.93;;;5.03;;
17173;SDS011;8702;48.130;-1.696;2023-11-19T01:40:01;18.90;;;5.10;;
17173;SDS011;8702;48.130;-1.696;2023-11-19T01:42:29;21.73;;;5.00;;
17173;SDS011;8702;48.130;-1.696;2023-11-19T01:44:57;18.73;;;5.00;;
17173;SDS011;8702;48.130;-1.696;2023-11-19T01:47:25;18.47;;;5.03;;
17173;SDS011;8702;48.130;-1.696;2023-11-19T01:49:52;19.70;;;5.10;;
17173;SDS011;8702;48.130;-1.696;2023-11-19T01:52:21;18.97;;;5.13;;
17173;SDS011;8702;48.130;-1.696;2023-11-19T01:54:48;18.70;;;5.03;;
17173;SDS011;8702;48.130;-1.696;2023-11-19T01:57:15;23.83;;;5.20;;
17173;SDS011;8702;48.130;-1.696;2023-11-19T01:59:43;18.17;;;5.03;;
17173;SDS011;8702;48.130;-1.696;2023-11-19T02:02:10;17.17;;;4.33;;
17173;SDS011;8702;48.130;-1.696;2023-11-19T02:04:38;25.17;;;5.47;;
17173;SDS011;8702;48.130;-1.696;2023-11-19T02:07:06;22.83;;;5.20;;
17173;SDS011;8702;48.130;-1.696;2023-11-19T02:09:35;20.57;;;4.77;;
17173;SDS011;8702;48.130;-1.696;2023-11-19T02:12:03;29.63;;;5.70;;
17173;SDS011;8702;48.130;-1.696;2023-11-19T02:14:30;25.87;;;5.80;;
17173;SDS011;8702;48.130;-1.696;2023-11-19T02:16:57;31.00;;;5.70;;
17173;SDS011;8702;48.130;-1.696;2023-11-19T02:19:25;25.90;;;6.20;;
17173;SDS011;8702;48.130;-1.696;2023-11-19T02:21:52;28.03;;;6.23;;
17173;SDS011;8702;48.130;-1.696;2023-11-19T02:24:19;22.97;;;5.83;;
17173;SDS011;8702;48.130;-1.696;2023-11-19T02:26:52;29.17;;;6.20;;
17173;SDS011;8702;48.130;-1.696;2023-11-19T02:29:22;30.93;;;6.50;;
17173;SDS011;8702;48.130;-1.696;2023-11-19T02:31:49;24.77;;;6.07;;
17173;SDS011;8702;48.130;-1.696;2023-11-19T02:34:16;29.33;;;6.20;;
17173;SDS011;8702;48.130;-1.696;2023-11-19T02:36:44;20.97;;;5.93;;
17173;SDS011;8702;48.130;-1.696;2023-11-19T02:39:12;25.90;;;5.70;;
17173;SDS011;8702;48.130;-1.696;2023-11-19T02:41:40;26.03;;;5.93;;
17173;SDS011;8702;48.130;-1.696;2023-11-19T02:44:07;22.53;;;5.87;;
17173;SDS011;8702;48.130;-1.696;2023-11-19T02:46:35;26.63;;;5.77;;
17173;SDS011;8702;48.130;-1.696;2023-11-19T02:49:02;27.90;;;6.33;;
17173;SDS011;8702;48.130;-1.696;2023-11-19T02:51:31;23.30;;;6.43;;
17173;SDS011;8702;48.130;-1.696;2023-11-19T02:53:59;30.33;;;6.23;;
17173;SDS011;8702;48.130;-1.696;2023-11-19T02:56:28;28.17;;;6.83;;
17173;SDS011;8702;48.130;-1.696;2023-11-19T02:58:59;26.97;;;6.27;;
17173;SDS011;8702;48.130;-1.696;2023-11-19T03:01:32;28.47;;;6.57;;
17173;SDS011;8702;48.130;-1.696;2023-11-19T03:04:02;28.27;;;6.77;;
17173;SDS011;8702;48.130;-1.696;2023-11-19T03:06:29;29.17;;;6.20;;
17173;SDS011;8702;48.130;-1.696;2023-11-19T03:08:57;28.60;;;6.57;;
17173;SDS011;8702;48.130;-1.696;2023-11-19T03:11:26;25.40;;;6.07;;
17173;SDS011;8702;48.130;-1.696;2023-11-19T03:13:53;29.93;;;6.47;;
17173;SDS011;8702;48.130;-1.696;2023-11-19T03:16:20;27.33;;;6.87;;
17173;SDS011;8702;48.130;-1.696;2023-11-19T03:18:48;28.57;;;7.17;;
17173;SDS011;8702;48.130;-1.696;2023-11-19T03:21:16;29.17;;;6.83;;
17173;SDS011;8702;48.130;-1.696;2023-11-19T03:23:43;28.53;;;6.77;;
17173;SDS011;8702;48.130;-1.696;2023-11-19T03:26:11;28.33;;;6.63;;
17173;SDS011;8702;48.130;-1.696;2023-11-19T03:28:38;29.67;;;6.70;;
17173;SDS011;8702;48.130;-1.696;2023-11-19T03:31:05;29.90;;;7.23;;
17173;SDS011;8702;48.130;-1.696;2023-11-19T03:33:33;26.63;;;7.13;;
17173;SDS011;8702;48.130;-1.696;2023-11-19T03:36:00;33.33;;;7.07;;
17173;SDS011;8702;48.130;-1.696;2023-11-19T03:38:29;32.63;;;7.03;;
17173;SDS011;8702;48.130;-1.696;2023-11-19T03:40:56;27.03;;;6.80;;
17173;SDS011;8702;48.130;-1.696;2023-11-19T03:43:24;27.23;;;7.50;;
17173;SDS011;8702;48.130;-1.696;2023-11-19T03:45:52;31.87;;;6.47;;
17173;SDS011;8702;48.130;-1.696;2023-11-19T03:48:19;29.90;;;6.83;;
17173;SDS011;8702;48.130;-1.696;2023-11-19T03:50:46;28.10;;;7.17;;
17173;SDS011;8702;48.130;-1.696;2023-11-19T03:53:14;27.97;;;7.73;;
17173;SDS011;8702;48.130;-1.696;2023-11-19T03:55:42;29.77;;;6.80;;
17173;SDS011;8702;48.130;-1.696;2023-11-19T03:58:09;32.20;;;6.67;;
17173;SDS011;8702;48.130;-1.696;2023-11-19T04:00:37;25.83;;;7.00;;
17173;SDS011;8702;48.130;-1.696;2023-11-19T04:03:05;35.13;;;7.33;;
17173;SDS011;8702;48.130;-1.696;2023-11-19T04:05:33;35.63;;;6.70;;
17173;SDS011;8702;48.130;-1.696;2023-11-19T04:08:00;33.53;;;7.50;;
17173;SDS011;8702;48.130;-1.696;2023-11-19T04:10:27;32.30;;;6.77;;
17173;SDS011;8702;48.130;-1.696;2023-11-19T04:12:55;32.63;;;7.43;;
17173;SDS011;8702;48.130;-1.696;2023-11-19T04:15:22;28.40;;;6.50;;
17173;SDS011;8702;48.130;-1.696;2023-11-19T04:17:50;28.00;;;6.77;;
17173;SDS011;8702;48.130;-1.696;2023-11-19T04:20:17;34.60;;;8.30;;
17173;SDS011;8702;48.130;-1.696;2023-11-19T04:22:44;28.23;;;7.27;;
17173;SDS011;8702;48.130;-1.696;2023-11-19T04:25:11;30.97;;;7.17;;
17173;SDS011;8702;48.130;-1.696;2023-11-19T04:27:39;35.67;;;8.07;;
17173;SDS011;8702;48.130;-1.696;2023-11-19T04:30:07;32.33;;;8.00;;
17173;SDS011;8702;48.130;-1.696;2023-11-19T04:32:36;30.70;;;7.63;;
17173;SDS011;8702;48.130;-1.696;2023-11-19T04:35:03;31.53;;;7.80;;
17173;SDS011;8702;48.130;-1.696;2023-11-19T04:37:31;33.93;;;7.57;;
17173;SDS011;8702;48.130;-1.696;2023-11-19T04:39:59;32.67;;;7.80;;
17173;SDS011;8702;48.130;-1.696;2023-11-19T04:42:26;35.33;;;7.27;;
17173;SDS011;8702;48.130;-1.696;2023-11-19T04:44:54;32.17;;;6.97;;
17173;SDS011;8702;48.130;-1.696;2023-11-19T04:47:23;28.87;;;7.23;;
17173;SDS011;8702;48.130;-1.696;2023-11-19T04:49:50;36.07;;;8.40;;
17173;SDS011;8702;48.130;-1.696;2023-11-19T04:52:17;32.23;;;8.50;;
17173;SDS011;8702;48.130;-1.696;2023-11-19T04:54:44;33.40;;;7.63;;
17173;SDS011;8702;48.130;-1.696;2023-11-19T04:57:13;28.70;;;7.60;;
17173;SDS011;8702;48.130;-1.696;2023-11-19T04:59:40;31.90;;;7.40;;
17173;SDS011;8702;48.130;-1.696;2023-11-19T05:02:08;33.67;;;8.63;;
17173;SDS011;8702;48.130;-1.696;2023-11-19T05:04:36;32.13;;;7.40;;
17173;SDS011;8702;48.130;-1.696;2023-11-19T05:07:04;32.63;;;7.43;;
17173;SDS011;8702;48.130;-1.696;2023-11-19T05:09:32;36.97;;;8.67;;
17173;SDS011;8702;48.130;-1.696;2023-11-19T05:11:59;38.57;;;8.33;;
17173;SDS011;8702;48.130;-1.696;2023-11-19T05:14:26;36.63;;;8.47;;
17173;SDS011;8702;48.130;-1.696;2023-11-19T05:16:54;33.30;;;8.00;;
17173;SDS011;8702;48.130;-1.696;2023-11-19T05:19:21;35.63;;;8.03;;
17173;SDS011;8702;48.130;-1.696;2023-11-19T05:21:49;33.90;;;8.07;;
17173;SDS011;8702;48.130;-1.696;2023-11-19T05:24:17;31.73;;;8.57;;
17173;SDS011;8702;48.130;-1.696;2023-11-19T05:26:44;39.70;;;8.67;;
17173;SDS011;8702;48.130;-1.696;2023-11-19T05:29:12;36.20;;;8.57;;
17173;SDS011;8702;48.130;-1.696;2023-11-19T05:31:39;32.17;;;7.57;;
17173;SDS011;8702;48.130;-1.696;2023-11-19T05:34:06;32.67;;;7.67;;
17173;SDS011;8702;48.130;-1.696;2023-11-19T05:36:33;36.87;;;8.83;;
17173;SDS011;8702;48.130;-1.696;2023-11-19T05:39:02;34.37;;;7.87;;
17173;SDS011;8702;48.130;-1.696;2023-11-19T05:41:29;41.63;;;8.37;;
17173;SDS011;8702;48.130;-1.696;2023-11-19T05:43:57;32.83;;;7.50;;
17173;SDS011;8702;48.130;-1.696;2023-11-19T05:46:24;33.70;;;7.63;;
17173;SDS011;8702;48.130;-1.696;2023-11-19T05:48:52;31.20;;;7.47;;
17173;SDS011;8702;48.130;-1.696;2023-11-19T05:51:19;33.77;;;7.23;;
17173;SDS011;8702;48.130;-1.696;2023-11-19T05:53:46;42.73;;;7.97;;
17173;SDS011;8702;48.130;-1.696;2023-11-19T05:56:16;38.70;;;8.80;;
17173;SDS011;8702;48.130;-1.696;2023-11-19T05:58:46;32.60;;;7.83;;
17173;SDS011;8702;48.130;-1.696;2023-11-19T06:01:14;34.50;;;7.43;;
17173;SDS011;8702;48.130;-1.696;2023-11-19T06:03:41;34.07;;;8.27;;
17173;SDS011;8702;48.130;-1.696;2023-11-19T06:06:12;35.17;;;8.27;;
17173;SDS011;8702;48.130;-1.696;2023-11-19T06:08:39;38.17;;;8.60;;
17173;SDS011;8702;48.130;-1.696;2023-11-19T06:11:06;40.53;;;9.47;;
17173;SDS011;8702;48.130;-1.696;2023-11-19T06:13:35;34.50;;;8.07;;
17173;SDS011;8702;48.130;-1.696;2023-11-19T06:16:02;35.03;;;8.60;;
17173;SDS011;8702;48.130;-1.696;2023-11-19T06:18:29;27.60;;;7.77;;
17173;SDS011;8702;48.130;-1.696;2023-11-19T06:20:57;38.27;;;8.70;;
17173;SDS011;8702;48.130;-1.696;2023-11-19T06:23:24;35.43;;;7.53;;
17173;SDS011;8702;48.130;-1.696;2023-11-19T06:25:51;43.23;;;7.93;;
17173;SDS011;8702;48.130;-1.696;2023-11-19T06:28:18;40.87;;;8.00;;
17173;SDS011;8702;48.130;-1.696;2023-11-19T06:30:47;37.87;;;8.07;;
17173;SDS011;8702;48.130;-1.696;2023-11-19T06:33:14;37.33;;;8.73;;
17173;SDS011;8702;48.130;-1.696;2023-11-19T06:35:41;39.00;;;8.43;;
17173;SDS011;8702;48.130;-1.696;2023-11-19T06:38:08;36.83;;;8.27;;
17173;SDS011;8702;48.130;-1.696;2023-11-19T06:40:36;36.03;;;7.97;;
17173;SDS011;8702;48.130;-1.696;2023-11-19T06:43:03;33.53;;;8.37;;
17173;SDS011;8702;48.130;-1.696;2023-11-19T06:45:33;31.37;;;7.83;;
17173;SDS011;8702;48.130;-1.696;2023-11-19T06:48:03;34.47;;;7.90;;
17173;SDS011;8702;48.130;-1.696;2023-11-19T06:50:30;31.17;;;7.43;;
17173;SDS011;8702;48.130;-1.696;2023-11-19T06:52:57;32.17;;;6.47;;
17173;SDS011;8702;48.130;-1.696;2023-11-19T06:55:25;34.37;;;7.50;;
17173;SDS011;8702;48.130;-1.696;2023-11-19T06:57:53;29.70;;;7.30;;
17173;SDS011;8702;48.130;-1.696;2023-11-19T07:00:20;36.70;;;7.87;;
17173;SDS011;8702;48.130;-1.696;2023-11-19T07:02:47;31.90;;;7.40;;
17173;SDS011;8702;48.130;-1.696;2023-11-19T07:05:16;34.50;;;8.27;;
17173;SDS011;8702;48.130;-1.696;2023-11-19T07:07:44;29.77;;;6.73;;
17173;SDS011;8702;48.130;-1.696;2023-11-19T07:10:11;36.87;;;8.33;;
17173;SDS011;8702;48.130;-1.696;2023-11-19T07:12:38;38.63;;;8.83;;
17173;SDS011;8702;48.130;-1.696;2023-11-19T07:15:05;30.93;;;7.50;;
17173;SDS011;8702;48.130;-1.696;2023-11-19T07:17:33;35.93;;;7.60;;
17173;SDS011;8702;48.130;-1.696;2023-11-19T07:20:01;38.53;;;7.63;;
17173;SDS011;8702;48.130;-1.696;2023-11-19T07:22:32;36.47;;;7.67;;
17173;SDS011;8702;48.130;-1.696;2023-11-19T07:24:59;32.63;;;8.10;;
17173;SDS011;8702;48.130;-1.696;2023-11-19T07:27:26;36.93;;;7.57;;
17173;SDS011;8702;48.130;-1.696;2023-11-19T07:29:53;39.73;;;8.30;;
17173;SDS011;8702;48.130;-1.696;2023-11-19T07:32:21;37.57;;;7.87;;
17173;SDS011;8702;48.130;-1.696;2023-11-19T07:34:48;28.73;;;7.00;;
17173;SDS011;8702;48.130;-1.696;2023-11-19T07:37:15;35.57;;;8.13;;
17173;SDS011;8702;48.130;-1.696;2023-11-19T07:39:44;31.47;;;8.30;;
17173;SDS011;8702;48.130;-1.696;2023-11-19T07:42:11;38.83;;;8.77;;
17173;SDS011;8702;48.130;-1.696;2023-11-19T07:44:38;35.60;;;7.20;;
17173;SDS011;8702;48.130;-1.696;2023-11-19T07:47:06;35.00;;;9.03;;
17173;SDS011;8702;48.130;-1.696;2023-11-19T07:49:33;37.03;;;8.43;;
17173;SDS011;8702;48.130;-1.696;2023-11-19T07:52:00;35.73;;;7.67;;
17173;SDS011;8702;48.130;-1.696;2023-11-19T07:54:28;37.90;;;8.37;;
17173;SDS011;8702;48.130;-1.696;2023-11-19T07:56:56;39.97;;;8.13;;
17173;SDS011;8702;48.130;-1.696;2023-11-19T07:59:23;32.93;;;8.10;;
17173;SDS011;8702;48.130;-1.696;2023-11-19T08:01:51;39.47;;;9.20;;
17173;SDS011;8702;48.130;-1.696;2023-11-19T08:04:18;32.90;;;8.00;;
17173;SDS011;8702;48.130;-1.696;2023-11-19T08:06:45;41.80;;;8.80;;
17173;SDS011;8702;48.130;-1.696;2023-11-19T08:09:12;34.70;;;7.80;;
17173;SDS011;8702;48.130;-1.696;2023-11-19T08:11:40;32.97;;;8.10;;
17173;SDS011;8702;48.130;-1.696;2023-11-19T08:14:08;44.37;;;9.53;;
17173;SDS011;8702;48.130;-1.696;2023-11-19T08:16:35;34.83;;;7.90;;
17173;SDS011;8702;48.130;-1.696;2023-11-19T08:19:02;44.20;;;9.33;;
17173;SDS011;8702;48.130;-1.696;2023-11-19T08:21:30;37.63;;;8.97;;
17173;SDS011;8702;48.130;-1.696;2023-11-19T08:23:57;46.30;;;9.77;;
17173;SDS011;8702;48.130;-1.696;2023-11-19T08:26:24;40.43;;;8.73;;
17173;SDS011;8702;48.130;-1.696;2023-11-19T08:28:51;38.60;;;8.07;;
17173;SDS011;8702;48.130;-1.696;2023-11-19T08:31:19;39.47;;;7.93;;
17173;SDS011;8702;48.130;-1.696;2023-11-19T08:33:47;40.33;;;8.40;;
17173;SDS011;8702;48.130;-1.696;2023-11-19T08:36:16;37.87;;;8.47;;
17173;SDS011;8702;48.130;-1.696;2023-11-19T08:38:43;36.57;;;8.10;;
17173;SDS011;8702;48.130;-1.696;2023-11-19T08:41:11;30.83;;;7.13;;
17173;SDS011;8702;48.130;-1.696;2023-11-19T08:43:38;33.17;;;7.80;;
17173;SDS011;8702;48.130;-1.696;2023-11-19T08:46:09;40.63;;;8.43;;
17173;SDS011;8702;48.130;-1.696;2023-11-19T08:48:37;39.57;;;8.57;;
17173;SDS011;8702;48.130;-1.696;2023-11-19T08:51:05;34.53;;;8.00;;
17173;SDS011;8702;48.130;-1.696;2023-11-19T08:53:32;34.83;;;8.07;;
17173;SDS011;8702;48.130;-1.696;2023-11-19T08:55:59;42.57;;;9.33;;
17173;SDS011;8702;48.130;-1.696;2023-11-19T08:58:27;43.23;;;8.83;;
17173;SDS011;8702;48.130;-1.696;2023-11-19T09:00:55;32.27;;;7.53;;
17173;SDS011;8702;48.130;-1.696;2023-11-19T09:03:22;36.87;;;8.50;;
17173;SDS011;8702;48.130;-1.696;2023-11-19T09:05:52;33.57;;;8.07;;
17173;SDS011;8702;48.130;-1.696;2023-11-19T09:08:19;38.90;;;8.50;;
17173;SDS011;8702;48.130;-1.696;2023-11-19T09:10:47;42.70;;;8.60;;
17173;SDS011;8702;48.130;-1.696;2023-11-19T09:13:14;38.17;;;8.27;;
17173;SDS011;8702;48.130;-1.696;2023-11-19T09:15:41;41.33;;;8.63;;
17173;SDS011;8702;48.130;-1.696;2023-11-19T09:18:08;33.10;;;8.13;;
17173;SDS011;8702;48.130;-1.696;2023-11-19T09:20:35;40.50;;;8.57;;
17173;SDS011;8702;48.130;-1.696;2023-11-19T09:23:05;32.70;;;8.63;;
17173;SDS011;8702;48.130;-1.696;2023-11-19T09:25:33;41.40;;;8.53;;
17173;SDS011;8702;48.130;-1.696;2023-11-19T09:28:01;36.40;;;8.93;;
17173;SDS011;8702;48.130;-1.696;2023-11-19T09:30:28;40.67;;;8.83;;
17173;SDS011;8702;48.130;-1.696;2023-11-19T09:32:55;40.27;;;8.80;;
17173;SDS011;8702;48.130;-1.696;2023-11-19T09:35:22;45.70;;;9.90;;
17173;SDS011;8702;48.130;-1.696;2023-11-19T09:37:50;37.50;;;8.67;;
17173;SDS011;8702;48.130;-1.696;2023-11-19T09:40:18;43.73;;;8.70;;
17173;SDS011;8702;48.130;-1.696;2023-11-19T09:42:45;43.67;;;9.20;;
17173;SDS011;8702;48.130;-1.696;2023-11-19T09:45:13;37.33;;;8.23;;
17173;SDS011;8702;48.130;-1.696;2023-11-19T09:47:42;34.77;;;8.87;;
17173;SDS011;8702;48.130;-1.696;2023-11-19T09:50:10;37.63;;;9.07;;
17173;SDS011;8702;48.130;-1.696;2023-11-19T09:52:37;35.77;;;9.13;;
17173;SDS011;8702;48.130;-1.696;2023-11-19T09:55:04;31.60;;;8.33;;
17173;SDS011;8702;48.130;-1.696;2023-11-19T09:57:33;31.73;;;8.43;;
17173;SDS011;8702;48.130;-1.696;2023-11-19T10:00:02;39.17;;;8.20;;
17173;SDS011;8702;48.130;-1.696;2023-11-19T10:02:30;34.47;;;7.77;;
17173;SDS011;8702;48.130;-1.696;2023-11-19T10:04:58;38.10;;;8.03;;
17173;SDS011;8702;48.130;-1.696;2023-11-19T10:07:26;43.83;;;8.50;;
17173;SDS011;8702;48.130;-1.696;2023-11-19T10:09:53;36.70;;;8.33;;
17173;SDS011;8702;48.130;-1.696;2023-11-19T10:12:20;40.00;;;8.83;;
17173;SDS011;8702;48.130;-1.696;2023-11-19T10:14:48;35.70;;;8.23;;
17173;SDS011;8702;48.130;-1.696;2023-11-19T10:17:16;37.37;;;8.37;;
17173;SDS011;8702;48.130;-1.696;2023-11-19T10:19:44;35.83;;;8.63;;
17173;SDS011;8702;48.130;-1.696;2023-11-19T10:22:11;43.23;;;8.77;;
17173;SDS011;8702;48.130;-1.696;2023-11-19T10:24:40;34.00;;;8.87;;
17173;SDS011;8702;48.130;-1.696;2023-11-19T10:27:07;29.57;;;7.53;;
17173;SDS011;8702;48.130;-1.696;2023-11-19T10:29:36;34.97;;;7.57;;
17173;SDS011;8702;48.130;-1.696;2023-11-19T10:32:05;28.53;;;7.50;;
17173;SDS011;8702;48.130;-1.696;2023-11-19T10:34:32;29.87;;;7.53;;
17173;SDS011;8702;48.130;-1.696;2023-11-19T10:36:59;33.77;;;8.37;;
17173;SDS011;8702;48.130;-1.696;2023-11-19T10:39:31;40.77;;;9.00;;
17173;SDS011;8702;48.130;-1.696;2023-11-19T10:42:19;33.00;;;7.83;;
17173;SDS011;8702;48.130;-1.696;2023-11-19T10:44:46;29.50;;;8.10;;
17173;SDS011;8702;48.130;-1.696;2023-11-19T10:47:15;32.17;;;7.57;;
17173;SDS011;8702;48.130;-1.696;2023-11-19T10:49:43;31.30;;;7.93;;
17173;SDS011;8702;48.130;-1.696;2023-11-19T10:52:11;31.10;;;7.33;;
17173;SDS011;8702;48.130;-1.696;2023-11-19T10:54:39;33.57;;;8.10;;
17173;SDS011;8702;48.130;-1.696;2023-11-19T10:57:09;29.83;;;7.57;;
17173;SDS011;8702;48.130;-1.696;2023-11-19T10:59:39;27.50;;;6.67;;
17173;SDS011;8702;48.130;-1.696;2023-11-19T11:02:06;32.70;;;7.10;;
17173;SDS011;8702;48.130;-1.696;2023-11-19T11:04:39;34.10;;;8.30;;
17173;SDS011;8702;48.130;-1.696;2023-11-19T11:07:07;31.77;;;6.77;;
17173;SDS011;8702;48.130;-1.696;2023-11-19T11:09:36;29.83;;;7.80;;
17173;SDS011;8702;48.130;-1.696;2023-11-19T11:12:04;38.63;;;7.97;;
17173;SDS011;8702;48.130;-1.696;2023-11-19T11:14:33;33.20;;;8.10;;
17173;SDS011;8702;48.130;-1.696;2023-11-19T11:17:01;29.00;;;7.00;;
17173;SDS011;8702;48.130;-1.696;2023-11-19T11:19:29;32.73;;;8.50;;
17173;SDS011;8702;48.130;-1.696;2023-11-19T11:21:57;29.90;;;6.43;;
17173;SDS011;8702;48.130;-1.696;2023-11-19T11:24:29;33.20;;;7.23;;
17173;SDS011;8702;48.130;-1.696;2023-11-19T11:27:24;31.67;;;7.87;;
17173;SDS011;8702;48.130;-1.696;2023-11-19T11:29:57;37.27;;;8.07;;
17173;SDS011;8702;48.130;-1.696;2023-11-19T11:32:29;27.57;;;7.20;;
17173;SDS011;8702;48.130;-1.696;2023-11-19T11:35:03;27.90;;;7.80;;
17173;SDS011;8702;48.130;-1.696;2023-11-19T11:37:37;33.23;;;8.13;;
17173;SDS011;8702;48.130;-1.696;2023-11-19T11:40:09;27.73;;;6.63;;
17173;SDS011;8702;48.130;-1.696;2023-11-19T11:42:41;36.87;;;7.83;;
17173;SDS011;8702;48.130;-1.696;2023-11-19T11:45:08;31.63;;;7.47;;
17173;SDS011;8702;48.130;-1.696;2023-11-19T11:50:21;37.80;;;7.70;;
17173;SDS011;8702;48.130;-1.696;2023-11-19T11:55:53;26.87;;;7.50;;
17173;SDS011;8702;48.130;-1.696;2023-11-19T11:58:21;31.53;;;7.23;;
17173;SDS011;8702;48.130;-1.696;2023-11-19T12:00:48;33.97;;;7.93;;
17173;SDS011;8702;48.130;-1.696;2023-11-19T12:03:16;38.47;;;7.73;;
17173;SDS011;8702;48.130;-1.696;2023-11-19T12:05:46;33.77;;;7.17;;
17173;SDS011;8702;48.130;-1.696;2023-11-19T12:08:14;32.80;;;6.93;;
17173;SDS011;8702;48.130;-1.696;2023-11-19T12:10:43;26.63;;;6.57;;
17173;SDS011;8702;48.130;-1.696;2023-11-19T12:13:13;26.77;;;6.40;;
17173;SDS011;8702;48.130;-1.696;2023-11-19T12:18:30;22.47;;;5.83;;
17173;SDS011;8702;48.130;-1.696;2023-11-19T12:20:57;19.60;;;5.40;;
17173;SDS011;8702;48.130;-1.696;2023-11-19T12:23:25;26.60;;;6.60;;
17173;SDS011;8702;48.130;-1.696;2023-11-19T12:25:53;27.80;;;6.40;;
17173;SDS011;8702;48.130;-1.696;2023-11-19T12:28:21;26.40;;;5.90;;
17173;SDS011;8702;48.130;-1.696;2023-11-19T12:30:49;24.10;;;6.97;;
17173;SDS011;8702;48.130;-1.696;2023-11-19T12:33:16;26.17;;;6.77;;
17173;SDS011;8702;48.130;-1.696;2023-11-19T12:35:44;21.67;;;5.37;;
17173;SDS011;8702;48.130;-1.696;2023-11-19T12:38:19;24.97;;;5.80;;
17173;SDS011;8702;48.130;-1.696;2023-11-19T12:40:46;22.83;;;6.33;;
17173;SDS011;8702;48.130;-1.696;2023-11-19T12:43:22;22.73;;;6.13;;
17173;SDS011;8702;48.130;-1.696;2023-11-19T12:45:49;24.20;;;5.83;;
17173;SDS011;8702;48.130;-1.696;2023-11-19T12:48:16;25.00;;;6.43;;
17173;SDS011;8702;48.130;-1.696;2023-11-19T12:50:50;24.77;;;6.00;;
17173;SDS011;8702;48.130;-1.696;2023-11-19T12:53:18;25.00;;;5.83;;
17173;SDS011;8702;48.130;-1.696;2023-11-19T12:55:45;27.20;;;5.77;;
17173;SDS011;8702;48.130;-1.696;2023-11-19T13:01:00;21.33;;;5.67;;
17173;SDS011;8702;48.130;-1.696;2023-11-19T13:03:30;25.23;;;6.00;;
17173;SDS011;8702;48.130;-1.696;2023-11-19T13:06:01;22.70;;;5.73;;
17173;SDS011;8702;48.130;-1.696;2023-11-19T13:08:28;25.77;;;5.73;;
17173;SDS011;8702;48.130;-1.696;2023-11-19T13:10:56;23.80;;;4.93;;
17173;SDS011;8702;48.130;-1.696;2023-11-19T13:13:23;19.00;;;5.37;;
17173;SDS011;8702;48.130;-1.696;2023-11-19T13:15:50;24.40;;;5.67;;
17173;SDS011;8702;48.130;-1.696;2023-11-19T13:18:18;21.83;;;5.37;;
17173;SDS011;8702;48.130;-1.696;2023-11-19T13:20:45;22.43;;;5.53;;
17173;SDS011;8702;48.130;-1.696;2023-11-19T13:23:13;24.63;;;6.07;;
17173;SDS011;8702;48.130;-1.696;2023-11-19T13:25:40;23.30;;;5.40;;
17173;SDS011;8702;48.130;-1.696;2023-11-19T13:28:08;26.10;;;6.07;;
17173;SDS011;8702;48.130;-1.696;2023-11-19T13:30:35;25.00;;;5.83;;
17173;SDS011;8702;48.130;-1.696;2023-11-19T13:33:03;21.87;;;5.87;;
17173;SDS011;8702;48.130;-1.696;2023-11-19T13:35:31;26.13;;;5.73;;
17173;SDS011;8702;48.130;-1.696;2023-11-19T13:37:59;21.73;;;6.10;;
17173;SDS011;8702;48.130;-1.696;2023-11-19T13:40:26;21.93;;;6.30;;
17173;SDS011;8702;48.130;-1.696;2023-11-19T13:42:53;21.93;;;5.80;;
17173;SDS011;8702;48.130;-1.696;2023-11-19T13:45:20;21.27;;;5.43;;
17173;SDS011;8702;48.130;-1.696;2023-11-19T13:47:47;24.60;;;6.37;;
17173;SDS011;8702;48.130;-1.696;2023-11-19T13:50:15;18.97;;;5.23;;
17173;SDS011;8702;48.130;-1.696;2023-11-19T13:52:44;22.40;;;5.30;;
17173;SDS011;8702;48.130;-1.696;2023-11-19T13:55:12;22.30;;;5.83;;
17173;SDS011;8702;48.130;-1.696;2023-11-19T13:57:40;22.83;;;5.77;;
17173;SDS011;8702;48.130;-1.696;2023-11-19T14:00:08;21.93;;;5.40;;
17173;SDS011;8702;48.130;-1.696;2023-11-19T14:02:37;24.10;;;5.50;;
17173;SDS011;8702;48.130;-1.696;2023-11-19T14:05:05;18.20;;;5.37;;
17173;SDS011;8702;48.130;-1.696;2023-11-19T14:07:32;28.10;;;5.93;;
17173;SDS011;8702;48.130;-1.696;2023-11-19T14:10:01;25.33;;;4.97;;
17173;SDS011;8702;48.130;-1.696;2023-11-19T14:12:28;20.53;;;5.37;;
17173;SDS011;8702;48.130;-1.696;2023-11-19T14:14:55;24.07;;;5.23;;
17173;SDS011;8702;48.130;-1.696;2023-11-19T14:17:22;23.90;;;6.60;;
17173;SDS011;8702;48.130;-1.696;2023-11-19T14:19:50;24.60;;;6.13;;
17173;SDS011;8702;48.130;-1.696;2023-11-19T14:22:17;24.63;;;5.57;;
17173;SDS011;8702;48.130;-1.696;2023-11-19T14:24:44;22.97;;;6.03;;
17173;SDS011;8702;48.130;-1.696;2023-11-19T14:27:12;26.37;;;6.27;;
17173;SDS011;8702;48.130;-1.696;2023-11-19T14:29:39;24.13;;;5.67;;
17173;SDS011;8702;48.130;-1.696;2023-11-19T14:32:07;21.17;;;5.70;;
17173;SDS011;8702;48.130;-1.696;2023-11-19T14:34:34;22.13;;;5.50;;
17173;SDS011;8702;48.130;-1.696;2023-11-19T14:37:01;19.53;;;5.50;;
17173;SDS011;8702;48.130;-1.696;2023-11-19T14:39:28;24.93;;;5.70;;
17173;SDS011;8702;48.130;-1.696;2023-11-19T14:41:56;24.37;;;6.00;;
17173;SDS011;8702;48.130;-1.696;2023-11-19T14:44:27;23.50;;;6.20;;
17173;SDS011;8702;48.130;-1.696;2023-11-19T14:46:54;23.40;;;5.70;;
17173;SDS011;8702;48.130;-1.696;2023-11-19T14:49:22;29.30;;;5.53;;
17173;SDS011;8702;48.130;-1.696;2023-11-19T14:51:50;19.53;;;5.20;;